Time;durP1;ratioP1;P1;durP2;ratioP2;P2;SDS_P1;SDS_P2;PMS_P1;PMS_P2;Temp;Humidity;BMP_temperature;BMP_pressure;BME280_temperature;BME280_humidity;BME280_pressure;Samples;Min_cycle;Max_cycle;Signal;HPM_P1;HPM_P2
2021/10/21 00:01:45;;;;;;;14.47;8.18;;;;;;;14.81;59.51;99150.27;1750246;82;28132;-60
2021/10/21 00:04:13;;;;;;;14.58;9.05;;;;;;;14.79;59.62;99146.36;1750141;82;25589;-59
2021/10/21 00:06:42;;;;;;;13.60;8.50;;;;;;;14.74;59.66;99146.09;1750126;82;25463;-59
2021/10/21 00:09:10;;;;;;;10.23;8.30;;;;;;;14.72;59.70;99140.23;1723118;82;25716;-59
2021/10/21 00:11:39;;;;;;;16.17;9.08;;;;;;;14.70;59.71;99137.09;1750146;82;25527;-59
2021/10/21 00:14:05;;;;;;;11.77;7.93;;;;;;;14.68;59.68;99138.03;1750328;82;27506;-59
2021/10/21 00:16:32;;;;;;;12.23;8.33;;;;;;;14.65;59.82;99133.31;1750046;82;25799;-59
2021/10/21 00:19:00;;;;;;;10.43;7.92;;;;;;;14.61;59.87;99133.81;1750116;81;25600;-58
2021/10/21 00:21:27;;;;;;;18.75;8.35;;;;;;;14.57;59.75;99118.77;1750049;82;26110;-59
2021/10/21 00:23:54;;;;;;;13.15;8.63;;;;;;;14.55;59.83;99120.48;1750155;82;25546;-60
2021/10/21 00:26:21;;;;;;;13.88;8.90;;;;;;;14.54;59.91;99114.05;1750129;82;28437;-59
2021/10/21 00:28:50;;;;;;;14.98;8.90;;;;;;;14.53;59.90;99106.47;1750034;82;25864;-60
2021/10/21 00:31:19;;;;;;;13.72;8.73;;;;;;;14.51;59.91;99104.69;1750259;82;25478;-59
2021/10/21 00:33:49;;;;;;;13.38;8.75;;;;;;;14.51;59.96;99121.59;1750220;82;25570;-58
2021/10/21 00:36:15;;;;;;;;;;;;;;;14.47;59.90;99115.30;1752313;82;25815;-59
2021/10/21 00:38:44;;;;;;;12.13;8.90;;;;;;;14.45;60.02;99114.30;1748528;80;29681;-60
2021/10/21 00:41:11;;;;;;;12.60;8.53;;;;;;;14.42;60.13;99120.48;1749870;81;32877;-59
2021/10/21 00:43:41;;;;;;;13.05;8.50;;;;;;;14.39;60.17;99108.38;1750142;82;25463;-59
2021/10/21 00:46:11;;;;;;;13.20;8.55;;;;;;;14.36;60.26;99105.61;1750097;82;26130;-59
2021/10/21 00:48:40;;;;;;;14.85;8.23;;;;;;;14.31;60.35;99090.37;1750159;82;25507;-59
2021/10/21 00:51:11;;;;;;;12.33;8.85;;;;;;;14.29;60.37;99087.23;1750146;82;27455;-60
2021/10/21 00:53:39;;;;;;;13.50;8.98;;;;;;;14.27;60.48;99095.52;1750063;82;25920;-59
2021/10/21 00:56:08;;;;;;;11.18;8.10;;;;;;;14.24;60.53;99078.02;1750127;82;25636;-59
2021/10/21 00:58:35;;;;;;;15.98;9.88;;;;;;;14.22;60.54;99083.03;1751136;81;26105;-59
2021/10/21 01:01:05;;;;;;;13.10;8.40;;;;;;;14.19;60.68;99072.88;1753169;81;25711;-58
2021/10/21 01:03:32;;;;;;;13.88;9.28;;;;;;;14.17;60.76;99075.18;1753080;81;28198;-60
2021/10/21 01:05:59;;;;;;;12.10;9.10;;;;;;;14.15;60.80;99061.17;1752966;81;25808;-59
2021/10/21 01:08:26;;;;;;;17.45;8.68;;;;;;;14.14;60.83;99060.95;1753069;81;25478;-59
2021/10/21 01:10:53;;;;;;;14.93;9.20;;;;;;;14.13;60.91;99060.72;1752997;80;25579;-59
2021/10/21 01:13:20;;;;;;;13.30;8.98;;;;;;;14.11;60.93;99053.51;1753102;81;25466;-60
2021/10/21 01:15:47;;;;;;;12.88;8.48;;;;;;;14.11;61.00;99054.87;1753097;81;27503;-60
2021/10/21 01:18:14;;;;;;;12.47;8.70;;;;;;;14.07;61.04;99055.39;1752988;81;25575;-59
2021/10/21 01:20:44;;;;;;;12.23;8.60;;;;;;;14.07;61.10;99062.97;1753223;81;25640;-59
2021/10/21 01:23:10;;;;;;;12.25;9.25;;;;;;;14.08;61.14;99063.74;1753188;81;26121;-59
2021/10/21 01:25:37;;;;;;;11.35;8.60;;;;;;;14.08;61.22;99056.95;1753249;81;25496;-60
2021/10/21 01:28:05;;;;;;;12.18;9.05;;;;;;;14.08;61.18;99061.02;1753231;81;27602;-60
2021/10/21 01:30:32;;;;;;;12.45;8.53;;;;;;;14.05;61.20;99053.03;1753163;81;25795;-59
2021/10/21 01:33:00;;;;;;;12.40;8.85;;;;;;;14.06;61.23;99046.43;1753187;81;25519;-59
2021/10/21 01:35:27;;;;;;;14.28;8.63;;;;;;;14.05;61.28;99039.44;1753171;81;26448;-59
2021/10/21 01:37:53;;;;;;;16.82;10.20;;;;;;;14.05;61.26;99030.51;1753217;81;25667;-59
2021/10/21 01:40:21;;;;;;;16.27;9.00;;;;;;;14.03;61.25;99025.43;1753205;80;28272;-59
2021/10/21 01:42:49;;;;;;;11.78;8.55;;;;;;;14.02;61.27;99025.20;1753110;81;25905;-58
2021/10/21 01:45:29;;;;;;;13.40;9.23;;;;;;;14.03;61.45;99024.07;1753203;81;25652;-60
2021/10/21 01:47:59;;;;;;;12.13;8.93;;;;;;;14.03;61.32;99016.47;1753189;81;25543;-59
2021/10/21 01:50:29;;;;;;;13.35;8.85;;;;;;;14.04;61.38;99025.63;1753244;81;25464;-60
2021/10/21 01:52:56;;;;;;;13.48;8.98;;;;;;;14.02;61.37;99026.56;1753250;81;28064;-58
2021/10/21 01:55:24;;;;;;;13.62;9.43;;;;;;;13.99;61.32;99026.70;1753101;81;25527;-59
2021/10/21 01:57:55;;;;;;;10.50;8.45;;;;;;;13.98;61.36;99013.50;1753174;81;25676;-58
2021/10/21 02:00:25;;;;;;;11.43;8.33;;;;;;;13.96;61.38;99011.69;1750383;81;25519;-60
2021/10/21 02:02:57;;;;;;;11.93;8.78;;;;;;;13.95;61.47;99011.50;1750309;82;25696;-58
2021/10/21 02:05:24;;;;;;;11.43;9.28;;;;;;;13.93;61.50;99009.72;1750271;82;28123;-59
2021/10/21 02:07:51;;;;;;;11.93;8.93;;;;;;;13.92;61.59;99018.43;1750154;82;25688;-59
2021/10/21 02:10:20;;;;;;;12.30;8.98;;;;;;;13.90;61.61;99016.66;1750185;80;25464;-60
2021/10/21 02:12:49;;;;;;;14.58;9.63;;;;;;;13.88;61.65;99010.80;1750305;82;25688;-58
2021/10/21 02:15:17;;;;;;;15.50;10.28;;;;;;;13.86;61.68;99021.25;1750480;82;25485;-60
2021/10/21 02:17:45;;;;;;;13.88;8.65;;;;;;;13.85;61.72;99002.59;1750239;82;28350;-60
2021/10/21 02:20:14;;;;;;;14.13;10.10;;;;;;;13.83;61.76;99004.30;1750425;82;25777;-61
2021/10/21 02:22:41;;;;;;;12.85;9.15;;;;;;;13.81;61.83;98992.44;1750267;82;25524;-61
2021/10/21 02:25:11;;;;;;;12.75;9.70;;;;;;;13.81;61.76;98979.43;1750183;82;25796;-59
2021/10/21 02:27:39;;;;;;;16.27;10.03;;;;;;;13.80;61.86;98974.55;1750259;82;25463;-59
2021/10/21 02:30:09;;;;;;;24.95;9.30;;;;;;;13.79;61.86;98970.83;1722662;82;26983;-61
2021/10/21 02:32:37;;;;;;;24.70;9.48;;;;;;;13.79;61.89;98975.72;1750182;82;25612;-59
2021/10/21 02:35:06;;;;;;;15.10;9.23;;;;;;;13.79;61.95;98977.63;1750245;82;25612;-60
2021/10/21 02:37:34;;;;;;;16.30;10.25;;;;;;;13.78;62.00;98975.48;1750310;82;25734;-60
2021/10/21 02:40:03;;;;;;;13.58;9.83;;;;;;;13.78;61.93;98972.00;1750246;80;25632;-60
2021/10/21 02:42:30;;;;;;;13.55;9.43;;;;;;;13.78;62.01;98967.92;1750341;82;27491;-59
2021/10/21 02:44:57;;;;;;;13.65;9.18;;;;;;;13.78;62.08;98963.84;1750134;82;25452;-60
2021/10/21 02:47:23;;;;;;;16.07;10.58;;;;;;;13.77;62.13;98951.39;1750225;82;25440;-60
2021/10/21 02:49:50;;;;;;;18.70;9.68;;;;;;;13.75;62.11;98951.75;1750190;82;25670;-60
2021/10/21 02:52:18;;;;;;;12.53;9.15;;;;;;;13.74;62.15;98939.88;1750254;82;25708;-60
2021/10/21 02:54:45;;;;;;;14.80;10.10;;;;;;;13.73;62.18;98946.48;1750230;82;27480;-59
2021/10/21 02:57:12;;;;;;;11.95;8.90;;;;;;;13.71;62.29;98940.63;1750151;82;25669;-59
2021/10/21 02:59:40;;;;;;;16.32;10.13;;;;;;;13.68;62.43;98939.41;1723454;82;25608;-59
2021/10/21 03:02:08;;;;;;;15.78;10.98;;;;;;;13.66;62.44;98938.22;1748573;82;25577;-59
2021/10/21 03:04:35;;;;;;;16.97;10.80;;;;;;;13.63;62.50;98932.92;1748650;82;25689;-59
2021/10/21 03:07:02;;;;;;;13.58;10.23;;;;;;;13.60;62.49;98928.20;1748644;82;27631;-59
2021/10/21 03:09:29;;;;;;;14.43;9.93;;;;;;;13.55;62.64;98926.59;1748514;80;25637;-59
2021/10/21 03:11:55;;;;;;;17.35;10.50;;;;;;;13.50;62.72;98917.39;1748622;82;25482;-58
2021/10/21 03:14:22;;;;;;;14.53;10.20;;;;;;;13.46;62.90;98921.95;1748572;82;25639;-59
2021/10/21 03:16:49;;;;;;;16.15;10.68;;;;;;;13.41;62.96;98910.03;1748643;82;25459;-58
2021/10/21 03:19:16;;;;;;;12.53;10.00;;;;;;;13.38;63.03;98918.34;1748586;82;28134;-59
2021/10/21 03:21:43;;;;;;;16.30;10.98;;;;;;;13.33;63.20;98902.35;1748515;82;25689;-59
2021/10/21 03:24:10;;;;;;;15.32;10.35;;;;;;;13.30;63.34;98902.23;1748596;82;25600;-59
2021/10/21 03:26:37;;;;;;;17.15;10.78;;;;;;;13.27;63.47;98895.61;1748561;82;25539;-59
2021/10/21 03:29:04;;;;;;;13.85;10.00;;;;;;;13.24;63.50;98907.96;1748642;81;25586;-59
2021/10/21 03:31:33;;;;;;;15.23;10.35;;;;;;;13.21;63.58;98900.56;1756338;81;27417;-58
2021/10/21 03:34:00;;;;;;;21.82;11.35;;;;;;;13.18;63.81;98898.56;1729158;81;25558;-59
2021/10/21 03:36:29;;;;;;;15.88;11.43;;;;;;;13.16;63.86;98892.70;1756290;81;25588;-59
2021/10/21 03:38:56;;;;;;;14.13;10.50;;;;;;;13.16;63.98;98894.62;1756241;80;25613;-58
2021/10/21 03:41:23;;;;;;;15.10;10.05;;;;;;;13.15;64.05;98895.20;1756374;81;25680;-58
2021/10/21 03:43:49;;;;;;;17.85;10.32;;;;;;;13.16;64.05;98891.35;1756342;81;28082;-58
2021/10/21 03:46:16;;;;;;;15.15;10.53;;;;;;;13.17;64.07;98892.91;1756265;81;25609;-58
2021/10/21 03:48:46;;;;;;;14.70;10.85;;;;;;;13.18;64.09;98870.63;1730728;81;25606;-58
2021/10/21 03:51:14;;;;;;;15.68;11.08;;;;;;;13.18;64.11;98870.63;1756288;81;26571;-59
2021/10/21 03:53:41;;;;;;;16.57;10.68;;;;;;;13.17;64.03;98861.69;1756342;81;25511;-59
2021/10/21 03:56:09;;;;;;;13.15;10.18;;;;;;;13.18;63.98;98854.34;1756329;81;27474;-59
2021/10/21 03:58:37;;;;;;;19.57;11.40;;;;;;;13.16;63.99;98837.05;1756213;81;25629;-59
2021/10/21 04:01:05;;;;;;;17.17;11.33;;;;;;;13.15;63.97;98830.62;1745495;81;25593;-59
2021/10/21 04:03:32;;;;;;;13.90;10.25;;;;;;;13.12;64.01;98826.69;1744547;82;25641;-59
2021/10/21 04:05:59;;;;;;;17.15;10.60;;;;;;;13.10;64.04;98820.84;1744621;82;25513;-59
2021/10/21 04:08:26;;;;;;;13.72;10.40;;;;;;;13.08;64.09;98827.98;1744586;82;28171;-59
2021/10/21 04:10:53;;;;;;;16.12;10.25;;;;;;;13.07;64.15;98831.84;1744432;80;25689;-59
2021/10/21 04:13:21;;;;;;;13.03;10.20;;;;;;;13.05;64.18;98821.92;1744569;82;25673;-59
2021/10/21 04:15:48;;;;;;;14.63;11.20;;;;;;;13.03;64.24;98822.86;1744595;82;25718;-59
2021/10/21 04:18:15;;;;;;;13.80;10.23;;;;;;;13.05;64.32;98827.34;1744578;82;25712;-59
2021/10/21 04:20:42;;;;;;;12.85;10.28;;;;;;;13.02;64.39;98825.34;1744544;82;28176;-58
2021/10/21 04:23:09;;;;;;;18.57;11.75;;;;;;;13.02;64.39;98821.86;1744478;82;25606;-58
2021/10/21 04:25:36;;;;;;;16.93;10.80;;;;;;;13.01;64.47;98825.16;1744572;82;25506;-59
2021/10/21 04:28:04;;;;;;;14.40;9.93;;;;;;;12.99;64.42;98821.22;1744494;82;25558;-59
2021/10/21 04:30:31;;;;;;;13.72;9.85;;;;;;;12.97;64.54;98812.66;1744590;82;25700;-59
2021/10/21 04:32:58;;;;;;;18.37;10.32;;;;;;;12.96;64.57;98809.17;1744551;82;27610;-59
2021/10/21 04:35:26;;;;;;;13.03;9.85;;;;;;;12.97;64.69;98808.59;1744493;82;25848;-58
2021/10/21 04:37:53;;;;;;;12.03;9.45;;;;;;;12.96;64.65;98794.25;1744531;82;25459;-59
2021/10/21 04:40:20;;;;;;;15.95;10.95;;;;;;;12.94;64.73;98787.04;1744500;80;26093;-59
2021/10/21 04:42:47;;;;;;;15.78;10.30;;;;;;;12.96;64.79;98783.39;1744555;81;25520;-58
2021/10/21 04:45:14;;;;;;;18.02;10.10;;;;;;;12.93;64.76;98775.19;1744593;82;28091;-59
2021/10/21 04:47:41;;;;;;;14.70;10.10;;;;;;;12.94;64.86;98768.59;1744470;82;25459;-58
2021/10/21 04:50:09;;;;;;;16.20;9.85;;;;;;;12.92;64.92;98767.60;1744464;82;25609;-58
2021/10/21 04:52:37;;;;;;;15.45;10.50;;;;;;;12.89;64.97;98751.48;1744513;82;25598;-58
2021/10/21 04:55:08;;;;;;;16.15;10.50;;;;;;;12.87;65.02;98761.12;1744597;82;25515;-59
2021/10/21 04:57:36;;;;;;;17.70;11.40;;;;;;;12.84;65.04;98752.36;1744585;82;28098;-58
2021/10/21 05:00:06;;;;;;;15.13;10.53;;;;;;;12.79;65.08;98758.87;1746329;82;25660;-59
2021/10/21 05:02:34;;;;;;;15.85;10.65;;;;;;;12.75;65.17;98751.80;1750267;82;25472;-59
2021/10/21 05:05:01;;;;;;;16.75;10.58;;;;;;;12.73;65.35;98756.23;1750080;82;26126;-59
2021/10/21 05:07:27;;;;;;;15.58;10.58;;;;;;;12.70;65.34;98755.59;1750157;82;25513;-58
2021/10/21 05:09:54;;;;;;;14.23;11.03;;;;;;;12.67;65.47;98754.39;1750110;80;27486;-58
2021/10/21 05:12:21;;;;;;;17.92;10.82;;;;;;;12.65;65.48;98745.84;1750037;82;25927;-59
2021/10/21 05:14:48;;;;;;;15.25;10.95;;;;;;;12.65;65.47;98743.67;1750124;82;25644;-59
2021/10/21 05:17:15;;;;;;;14.55;10.72;;;;;;;12.63;65.55;98745.97;1750176;82;25677;-59
2021/10/21 05:19:42;;;;;;;15.48;10.85;;;;;;;12.59;65.59;98756.76;1750111;82;25710;-58
2021/10/21 05:22:09;;;;;;;15.15;10.45;;;;;;;12.58;65.74;98758.47;1750158;82;27143;-58
2021/10/21 05:24:36;;;;;;;16.73;10.28;;;;;;;12.54;65.74;98750.85;1750024;82;25784;-58
2021/10/21 05:27:04;;;;;;;18.32;10.65;;;;;;;12.49;65.76;98754.05;1750136;82;25448;-58
2021/10/21 05:29:33;;;;;;;14.90;10.20;;;;;;;12.47;65.87;98748.80;1750094;82;26062;-58
2021/10/21 05:32:05;;;;;;;12.27;10.10;;;;;;;12.45;65.84;98747.79;1750402;81;25708;-58
2021/10/21 05:34:28;;;;;;;16.50;10.48;;;;;;;12.44;65.96;98744.86;1749193;82;28451;-58
2021/10/21 05:36:55;;;;;;;16.12;10.55;;;;;;;12.44;66.05;98746.79;1750027;82;25665;-58
2021/10/21 05:39:22;;;;;;;14.28;9.73;;;;;;;12.41;66.17;98738.81;1750040;80;25668;-58
2021/10/21 05:41:49;;;;;;;13.40;9.73;;;;;;;12.39;66.49;98734.88;1750091;82;25455;-58
2021/10/21 05:44:15;;;;;;;15.70;10.38;;;;;;;12.35;66.41;98734.04;1750135;81;25475;-58
2021/10/21 05:46:42;;;;;;;17.07;10.45;;;;;;;12.33;66.46;98731.11;1750121;82;28209;-58
2021/10/21 05:49:09;;;;;;;13.05;9.53;;;;;;;12.31;66.47;98725.84;1750002;82;25726;-58
2021/10/21 05:51:36;;;;;;;18.05;10.03;;;;;;;12.28;66.51;98708.35;1750112;82;25502;-59
2021/10/21 05:54:03;;;;;;;13.40;10.20;;;;;;;12.25;66.53;98710.42;1750041;82;26118;-58
2021/10/21 05:56:30;;;;;;;15.48;10.25;;;;;;;12.24;66.56;98716.20;1750136;82;25674;-58
2021/10/21 05:58:56;;;;;;;16.80;10.80;;;;;;;12.23;66.56;98717.36;1750048;82;27482;-58
2021/10/21 06:01:24;;;;;;;15.35;9.80;;;;;;;12.22;66.68;98706.29;1752343;81;25627;-58
2021/10/21 06:03:51;;;;;;;14.40;10.23;;;;;;;12.21;66.75;98697.94;1753348;81;25610;-57
2021/10/21 06:06:18;;;;;;;15.63;10.82;;;;;;;12.20;66.68;98694.45;1753395;81;25705;-58
2021/10/21 06:08:45;;;;;;;15.58;10.43;;;;;;;12.21;66.79;98692.52;1753393;80;25466;-59
2021/10/21 06:11:13;;;;;;;12.45;9.30;;;;;;;12.22;66.81;98694.09;1753455;81;27550;-58
2021/10/21 06:13:41;;;;;;;15.38;10.32;;;;;;;12.22;66.96;98697.58;1753368;81;25772;-57
2021/10/21 06:16:09;;;;;;;13.95;10.40;;;;;;;12.24;66.93;98702.64;1753437;81;25685;-58
2021/10/21 06:18:36;;;;;;;16.48;10.20;;;;;;;12.24;66.87;98677.70;1753402;81;25530;-58
2021/10/21 06:21:11;;;;;;;15.72;9.98;;;;;;;12.25;66.86;98669.76;1753485;81;25604;-58
2021/10/21 06:23:34;;;;;;;15.90;9.93;;;;;;;12.28;66.84;98672.34;1751964;81;29815;-58
2021/10/21 06:26:01;;;;;;;13.18;10.40;;;;;;;12.30;66.91;98674.89;1753359;81;25722;-58
2021/10/21 06:28:28;;;;;;;15.08;9.70;;;;;;;12.34;66.95;98664.10;1753442;81;25608;-57
2021/10/21 06:30:55;;;;;;;16.20;10.03;;;;;;;12.39;66.91;98661.09;1753421;81;26176;-58
2021/10/21 06:33:23;;;;;;;15.48;9.93;;;;;;;12.41;66.81;98658.02;1753487;81;25688;-58
2021/10/21 06:35:49;;;;;;;12.78;9.88;;;;;;;12.45;66.78;98650.17;1753413;81;28463;-58
2021/10/21 06:38:17;;;;;;;14.13;9.58;;;;;;;12.51;66.71;98641.16;1753274;81;25598;-58
2021/10/21 06:40:44;;;;;;;13.72;9.95;;;;;;;12.56;66.71;98650.34;1753373;80;25555;-58
2021/10/21 06:43:11;;;;;;;15.55;9.73;;;;;;;12.64;66.64;98658.04;1753369;81;26208;-58
2021/10/21 06:45:38;;;;;;;15.55;10.03;;;;;;;12.68;66.59;98654.25;1753444;81;25689;-58
2021/10/21 06:48:05;;;;;;;14.50;10.48;;;;;;;12.77;66.56;98648.57;1753429;81;28190;-58
2021/10/21 06:50:33;;;;;;;16.48;10.90;;;;;;;12.83;66.36;98654.47;1753342;81;26054;-58
2021/10/21 06:52:59;;;;;;;15.00;10.05;;;;;;;12.89;66.31;98648.95;1753423;81;25689;-58
2021/10/21 06:55:30;;;;;;;17.15;10.55;;;;;;;13.00;66.36;98649.88;1753379;81;26152;-58
2021/10/21 06:57:58;;;;;;;13.58;9.45;;;;;;;13.15;66.32;98649.52;1678642;84;25839;-59
2021/10/21 07:00:28;;;;;;;13.78;9.85;;;;;;;13.30;65.81;98644.28;1680520;84;27589;-58
2021/10/21 07:02:57;;;;;;;12.00;9.48;;;;;;;13.38;65.62;98644.06;1690909;84;26107;-58
2021/10/21 07:05:26;;;;;;;;;;;;;;;13.49;65.87;98645.55;1693485;84;25666;-57
2021/10/21 07:07:53;;;;;;;13.70;10.25;;;;;;;13.64;65.26;98632.35;1691297;84;25713;-57
2021/10/21 07:10:23;;;;;;;14.10;10.03;;;;;;;13.88;65.62;98658.84;1690977;84;25563;-58
2021/10/21 07:12:50;;;;;;;12.98;9.95;;;;;;;14.08;64.89;98664.09;1690977;84;27503;-58
2021/10/21 07:15:17;;;;;;;11.45;9.73;;;;;;;14.15;64.04;98666.32;1690902;84;25659;-58
2021/10/21 07:17:44;;;;;;;12.93;10.05;;;;;;;14.14;63.90;98682.42;1690976;84;25731;-57
2021/10/21 07:20:15;;;;;;;13.62;10.32;;;;;;;14.12;63.97;98683.37;1691001;84;25520;-57
2021/10/21 07:22:43;;;;;;;16.60;10.10;;;;;;;14.10;63.54;98706.66;1691002;84;25694;-58
2021/10/21 07:25:12;;;;;;;13.38;9.50;;;;;;;14.06;63.83;98685.44;1690949;84;28523;-57
2021/10/21 07:27:41;;;;;;;14.10;9.50;;;;;;;14.05;63.99;98702.33;1690870;84;25503;-57
2021/10/21 07:30:09;;;;;;;;;;;;;;;14.03;63.86;98703.84;1693483;84;25521;-59
2021/10/21 07:32:37;;;;;;;14.93;9.93;;;;;;;13.98;64.02;98697.59;1690929;84;26081;-59
2021/10/21 07:35:05;;;;;;;13.58;9.28;;;;;;;13.93;64.04;98681.61;1714819;81;25636;-59
2021/10/21 07:37:31;;;;;;;13.25;9.03;;;;;;;13.91;64.11;98682.56;1756339;81;27468;-58
2021/10/21 07:39:58;;;;;;;14.23;9.73;;;;;;;13.87;64.25;98681.72;1756268;80;25821;-58
2021/10/21 07:42:25;;;;;;;13.25;10.40;;;;;;;13.84;64.49;98674.30;1756307;81;25464;-59
2021/10/21 07:44:52;;;;;;;15.93;10.53;;;;;;;13.81;64.57;98662.84;1756307;81;25879;-59
2021/10/21 07:47:20;;;;;;;13.90;9.68;;;;;;;13.77;64.75;98661.44;1756358;81;25455;-59
2021/10/21 07:49:47;;;;;;;12.58;9.88;;;;;;;13.74;64.88;98652.66;1756341;81;28230;-59
2021/10/21 07:52:17;;;;;;;14.87;10.43;;;;;;;13.74;65.07;98649.14;1756252;81;25613;-59
2021/10/21 07:54:46;;;;;;;13.22;9.73;;;;;;;13.73;65.20;98648.95;1756365;81;25506;-59
2021/10/21 07:57:13;;;;;;;17.65;10.72;;;;;;;13.71;65.37;98641.17;1756326;81;25624;-59
2021/10/21 07:59:41;;;;;;;12.43;9.40;;;;;;;13.73;65.46;98644.87;1756329;81;25495;-59
2021/10/21 08:02:08;;;;;;;14.65;10.35;;;;;;;13.76;65.59;98646.86;1747208;81;28249;-59
2021/10/21 08:04:36;;;;;;;13.25;9.80;;;;;;;13.80;65.63;98658.55;1744514;82;25456;-59
2021/10/21 08:07:03;;;;;;;14.83;9.65;;;;;;;13.81;65.61;98647.30;1744593;82;25475;-59
2021/10/21 08:09:31;;;;;;;16.05;10.95;;;;;;;13.83;65.60;98651.78;1744538;80;25594;-59
2021/10/21 08:12:02;;;;;;;14.95;10.50;;;;;;;13.86;65.61;98639.41;1744606;82;25486;-59
2021/10/21 08:14:30;;;;;;;15.63;9.90;;;;;;;13.86;65.65;98642.13;1744606;82;27458;-59
2021/10/21 08:16:58;;;;;;;13.20;10.28;;;;;;;13.87;65.64;98631.44;1744500;81;25646;-57
2021/10/21 08:19:29;;;;;;;13.55;10.68;;;;;;;13.88;65.69;98640.40;1744543;82;25696;-59
2021/10/21 08:21:57;;;;;;;11.30;9.85;;;;;;;13.89;65.73;98634.56;1744540;81;25671;-58
2021/10/21 08:24:24;;;;;;;15.25;10.48;;;;;;;13.88;65.85;98638.45;1744607;82;25635;-58
2021/10/21 08:26:54;;;;;;;18.17;10.50;;;;;;;13.88;65.88;98631.66;1744539;82;27493;-59
2021/10/21 08:29:23;;;;;;;16.77;10.43;;;;;;;13.89;66.10;98639.23;1744480;82;26216;-59
2021/10/21 08:32:01;;;;;;;15.72;10.85;;;;;;;13.87;66.24;98632.80;1744706;82;25661;-58
2021/10/21 08:34:25;;;;;;;18.27;11.40;;;;;;;13.87;66.28;98627.95;1743737;82;25662;-59
2021/10/21 08:36:51;;;;;;;12.50;10.08;;;;;;;13.86;66.40;98652.19;1744595;82;25623;-59
2021/10/21 08:39:18;;;;;;;16.32;11.80;;;;;;;13.86;66.68;98659.79;1744479;80;28535;-58
2021/10/21 08:41:47;;;;;;;19.35;12.00;;;;;;;13.85;67.08;98656.08;1744470;82;25661;-59
2021/10/21 08:44:14;;;;;;;17.92;12.35;;;;;;;13.80;67.80;98648.45;1744555;82;25460;-58
2021/10/21 08:46:45;;;;;;;17.75;12.10;;;;;;;13.73;68.47;98648.37;1744626;82;25650;-58
2021/10/21 08:49:13;;;;;;;17.62;12.13;;;;;;;13.67;69.02;98637.61;1744592;82;25498;-58
2021/10/21 08:51:43;;;;;;;14.10;12.43;;;;;;;13.58;69.32;98646.63;1744531;82;27672;-58
2021/10/21 08:54:10;;;;;;;15.40;13.20;;;;;;;13.49;69.87;98642.06;1744538;82;25475;-57
2021/10/21 08:56:37;;;;;;;20.85;13.48;;;;;;;13.39;70.55;98633.97;1744601;82;25637;-58
2021/10/21 08:59:06;;;;;;;19.32;13.90;;;;;;;13.29;70.98;98621.78;1744469;82;25737;-58
2021/10/21 09:01:43;;;;;;;18.70;14.58;;;;;;;13.20;72.06;98634.86;1744605;82;25678;-57
2021/10/21 09:09:29;;;;;;;20.57;14.93;;;;;;;12.89;73.74;98628.02;1744488;80;25540;-57
2021/10/21 09:12:17;;;;;;;20.12;15.83;;;;;;;12.81;74.22;98640.48;1744503;82;26211;-57
2021/10/21 09:14:49;;;;;;;20.15;15.63;;;;;;;12.72;74.47;98648.88;1744589;81;25689;-58
2021/10/21 09:17:25;;;;;;;22.65;16.60;;;;;;;12.65;75.32;98614.28;1744179;82;27896;-58
2021/10/21 09:19:51;;;;;;;20.95;16.50;;;;;;;12.60;76.56;98628.15;1744293;81;25951;-59
2021/10/21 09:22:28;;;;;;;22.32;16.77;;;;;;;12.52;76.33;98623.17;1744485;82;25574;-58
2021/10/21 09:24:59;;;;;;;23.18;16.00;;;;;;;12.44;77.40;98628.84;1743565;82;26087;-58
2021/10/21 09:27:28;;;;;;;26.20;18.15;;;;;;;12.30;77.65;98612.53;1743454;82;25540;-58
2021/10/21 09:29:59;;;;;;;23.87;17.57;;;;;;;12.21;77.98;98599.80;1744788;82;27640;-59
2021/10/21 09:32:31;;;;;;;25.40;18.60;;;;;;;12.12;78.84;98577.00;1744530;82;25621;-58
2021/10/21 09:35:05;;;;;;;26.35;18.60;;;;;;;12.02;79.83;98560.53;1744574;82;25688;-58
2021/10/21 09:37:42;;;;;;;26.02;17.95;;;;;;;11.93;80.19;98559.42;1744591;81;25528;-58
2021/10/21 09:40:14;;;;;;;25.27;18.67;;;;;;;11.87;80.76;98550.78;1744680;80;25508;-58
2021/10/21 09:43:00;;;;;;;24.90;18.48;;;;;;;11.82;81.34;98541.60;1744686;82;28140;-59
2021/10/21 09:45:37;;;;;;;26.77;18.05;;;;;;;11.76;81.80;98559.28;1744646;82;25530;-57
2021/10/21 09:48:08;;;;;;;28.27;19.20;;;;;;;11.70;82.80;98568.86;1744697;82;25461;-54
2021/10/21 09:50:46;;;;;;;26.05;19.15;;;;;;;11.67;82.79;98574.98;1744744;82;26257;-56
2021/10/21 09:53:28;;;;;;;25.37;19.73;;;;;;;11.64;82.56;98535.84;1744847;82;25623;-54
2021/10/21 09:56:09;;;;;;;28.65;19.52;;;;;;;11.62;83.94;98525.17;1744335;82;27870;-54
2021/10/21 09:58:39;;;;;;;23.90;19.70;;;;;;;11.60;83.88;98506.58;1744592;82;25977;-53
2021/10/21 10:01:12;;;;;;;26.48;19.25;;;;;;;11.59;84.09;98497.67;1744555;82;25486;-53
2021/10/21 10:03:42;;;;;;;28.60;20.05;;;;;;;11.59;84.35;98509.86;1744638;82;25491;-54
2021/10/21 10:06:16;;;;;;;25.27;20.02;;;;;;;11.58;85.07;98488.56;1744785;82;25493;-53
2021/10/21 10:08:44;;;;;;;25.52;20.55;;;;;;;11.59;85.13;98477.37;1744657;80;27508;-53
2021/10/21 10:11:21;;;;;;;30.52;20.65;;;;;;;11.59;85.42;98475.21;1744567;82;26110;-54
2021/10/21 10:13:51;;;;;;;29.50;19.82;;;;;;;11.62;85.61;98487.27;1744652;82;25557;-54
2021/10/21 10:16:20;;;;;;;26.75;20.92;;;;;;;11.63;85.94;98471.20;1744642;82;25704;-53
2021/10/21 10:18:52;;;;;;;28.92;21.57;;;;;;;11.64;85.80;98472.20;1744808;82;25611;-55
2021/10/21 10:21:32;;;;;;;31.33;21.77;;;;;;;11.66;86.16;98467.78;1744645;82;27598;-54
2021/10/21 10:24:14;;;;;;;25.55;20.35;;;;;;;11.67;86.22;98480.97;1744611;82;25861;-55
2021/10/21 10:26:57;;;;;;;29.15;20.50;;;;;;;11.68;86.96;98477.13;1744749;82;25585;-56
2021/10/21 10:29:45;;;;;;;24.25;19.67;;;;;;;11.71;87.20;98476.97;1744636;82;26374;-54
2021/10/21 10:32:43;;;;;;;25.97;21.40;;;;;;;11.74;87.27;98477.61;1744709;81;25485;-54
2021/10/21 10:35:17;;;;;;;27.70;21.13;;;;;;;11.75;86.87;98463.70;1715683;82;28100;-54
2021/10/21 10:37:50;;;;;;;30.40;21.05;;;;;;;11.78;87.01;98456.77;1741592;82;25949;-53
2021/10/21 10:40:36;;;;;;;32.48;21.15;;;;;;;11.81;87.05;98433.03;1744244;80;25577;-53
2021/10/21 10:43:04;;;;;;;29.52;20.35;;;;;;;11.84;86.92;98429.59;1744610;82;26219;-55
2021/10/21 10:45:50;;;;;;;28.55;20.17;;;;;;;11.86;86.87;98435.44;1744681;82;25472;-54
2021/10/21 10:48:39;;;;;;;25.85;19.92;;;;;;;11.88;87.30;98423.66;1744640;81;29570;-53
2021/10/21 10:51:05;;;;;;;25.72;20.40;;;;;;;11.89;87.08;98426.58;1744598;82;25629;-55
2021/10/21 10:53:47;;;;;;;27.20;19.98;;;;;;;11.92;87.22;98429.19;1744641;82;25718;-54
2021/10/21 10:56:40;;;;;;;28.73;20.35;;;;;;;11.95;87.25;98428.44;1744607;82;26285;-54
2021/10/21 10:59:23;;;;;;;26.07;19.95;;;;;;;11.96;87.21;98430.02;1744761;82;25452;-52
2021/10/21 11:01:52;;;;;;;27.32;20.43;;;;;;;11.99;87.31;98429.88;1735804;81;27550;-54
2021/10/21 11:04:54;;;;;;;;;;;;;;;12.02;87.17;98404.73;1747081;82;25809;-54
2021/10/21 11:07:26;;;;;;;23.00;18.95;;;;;;;12.04;87.57;98391.05;1744654;82;25466;-53
2021/10/21 11:09:57;;;;;;;26.75;19.20;;;;;;;12.08;87.09;98381.61;1744582;80;26339;-53
2021/10/21 11:12:25;;;;;;;30.35;19.15;;;;;;;12.10;87.06;98375.25;1722215;83;25750;-55
2021/10/21 11:14:55;;;;;;;29.80;19.92;;;;;;;12.13;86.99;98358.26;1722406;83;28304;-55
2021/10/21 11:17:43;;;;;;;24.92;20.52;;;;;;;12.15;86.94;98352.66;1722128;83;25728;-53
2021/10/21 11:20:38;;;;;;;24.07;19.65;;;;;;;12.19;87.00;98339.19;1722134;83;25787;-56
2021/10/21 11:25:16;;;;;;;24.72;19.10;;;;;;;12.35;86.98;98325.44;1886320;76;35138;-53
2021/10/21 11:27:45;;;;;;;25.77;18.10;;;;;;;12.32;86.82;98321.52;1857477;77;25408;-54
2021/10/21 11:30:19;;;;;;;24.47;17.67;;;;;;;12.37;86.98;98324.49;1787410;80;28225;-54
2021/10/21 11:32:47;;;;;;;23.00;18.70;;;;;;;12.40;86.80;98320.28;1787341;80;25839;-53
2021/10/21 11:35:20;;;;;;;23.47;17.37;;;;;;;12.43;86.71;98319.52;1819695;78;25498;-55
2021/10/21 11:37:51;;;;;;;22.93;17.25;;;;;;;12.46;86.79;98318.78;1787408;80;25548;-55
2021/10/21 11:40:39;;;;;;;23.57;17.00;;;;;;;12.48;86.65;98309.70;1796761;78;25631;-53